sensor_id;sensor_type;location;lat;lon;timestamp;P1;durP1;ratioP1;P2;durP2;ratioP2
5961;SDS011;3007;50.770;0.250;2023-09-12T00:00:41;13.60;;;9.40;;
5961;SDS011;3007;50.770;0.250;2023-09-12T00:03:08;12.18;;;10.25;;
5961;SDS011;3007;50.770;0.250;2023-09-12T00:05:35;15.75;;;10.02;;
5961;SDS011;3007;50.770;0.250;2023-09-12T00:08:02;12.90;;;10.57;;
5961;SDS011;3007;50.770;0.250;2023-09-12T00:10:30;10.95;;;9.43;;
5961;SDS011;3007;50.770;0.250;2023-09-12T00:12:57;13.38;;;10.63;;
5961;SDS011;3007;50.770;0.250;2023-09-12T00:15:26;11.27;;;9.38;;
5961;SDS011;3007;50.770;0.250;2023-09-12T00:17:54;11.48;;;9.27;;
5961;SDS011;3007;50.770;0.250;2023-09-12T00:20:21;12.50;;;9.88;;
5961;SDS011;3007;50.770;0.250;2023-09-12T00:22:47;11.13;;;10.00;;
5961;SDS011;3007;50.770;0.250;2023-09-12T00:25:14;12.60;;;10.27;;
5961;SDS011;3007;50.770;0.250;2023-09-12T00:27:41;10.68;;;9.68;;
5961;SDS011;3007;50.770;0.250;2023-09-12T00:30:08;12.35;;;11.15;;
5961;SDS011;3007;50.770;0.250;2023-09-12T00:32:36;12.10;;;10.77;;
5961;SDS011;3007;50.770;0.250;2023-09-12T00:35:04;12.98;;;11.68;;
5961;SDS011;3007;50.770;0.250;2023-09-12T00:37:32;11.30;;;10.18;;
5961;SDS011;3007;50.770;0.250;2023-09-12T00:39:59;14.02;;;12.77;;
5961;SDS011;3007;50.770;0.250;2023-09-12T00:42:26;14.90;;;13.38;;
5961;SDS011;3007;50.770;0.250;2023-09-12T00:44:52;14.93;;;13.35;;
5961;SDS011;3007;50.770;0.250;2023-09-12T00:47:20;17.80;;;14.68;;
5961;SDS011;3007;50.770;0.250;2023-09-12T00:49:48;13.63;;;12.23;;
5961;SDS011;3007;50.770;0.250;2023-09-12T00:52:17;16.92;;;14.10;;
5961;SDS011;3007;50.770;0.250;2023-09-12T00:54:45;17.08;;;14.55;;
5961;SDS011;3007;50.770;0.250;2023-09-12T00:57:12;14.35;;;12.85;;
5961;SDS011;3007;50.770;0.250;2023-09-12T00:59:40;14.82;;;13.38;;
5961;SDS011;3007;50.770;0.250;2023-09-12T01:02:07;15.82;;;14.25;;
5961;SDS011;3007;50.770;0.250;2023-09-12T01:04:34;19.13;;;16.13;;
5961;SDS011;3007;50.770;0.250;2023-09-12T01:07:02;18.70;;;16.80;;
5961;SDS011;3007;50.770;0.250;2023-09-12T01:09:32;20.58;;;17.75;;
5961;SDS011;3007;50.770;0.250;2023-09-12T01:11:58;20.58;;;17.60;;
5961;SDS011;3007;50.770;0.250;2023-09-12T01:14:27;19.63;;;17.63;;
5961;SDS011;3007;50.770;0.250;2023-09-12T01:16:54;21.70;;;19.42;;
5961;SDS011;3007;50.770;0.250;2023-09-12T01:19:22;22.20;;;19.90;;
5961;SDS011;3007;50.770;0.250;2023-09-12T01:21:59;22.35;;;18.63;;
5961;SDS011;3007;50.770;0.250;2023-09-12T01:27:42;26.95;;;20.70;;
5961;SDS011;3007;50.770;0.250;2023-09-12T01:30:11;20.83;;;18.52;;
5961;SDS011;3007;50.770;0.250;2023-09-12T01:32:43;24.67;;;21.65;;
5961;SDS011;3007;50.770;0.250;2023-09-12T01:35:10;19.08;;;16.98;;
5961;SDS011;3007;50.770;0.250;2023-09-12T01:37:37;19.85;;;17.40;;
5961;SDS011;3007;50.770;0.250;2023-09-12T01:40:04;21.40;;;19.13;;
5961;SDS011;3007;50.770;0.250;2023-09-12T01:42:34;23.23;;;20.67;;
5961;SDS011;3007;50.770;0.250;2023-09-12T01:45:06;25.35;;;21.77;;
5961;SDS011;3007;50.770;0.250;2023-09-12T01:47:36;26.48;;;22.35;;
5961;SDS011;3007;50.770;0.250;2023-09-12T01:50:05;24.75;;;21.35;;
5961;SDS011;3007;50.770;0.250;2023-09-12T01:52:34;27.25;;;20.70;;
5961;SDS011;3007;50.770;0.250;2023-09-12T01:55:02;28.10;;;23.48;;
5961;SDS011;3007;50.770;0.250;2023-09-12T01:57:31;33.05;;;24.10;;
5961;SDS011;3007;50.770;0.250;2023-09-12T01:59:58;33.67;;;22.90;;
5961;SDS011;3007;50.770;0.250;2023-09-12T02:02:26;31.80;;;23.10;;
5961;SDS011;3007;50.770;0.250;2023-09-12T02:04:54;27.55;;;22.30;;
5961;SDS011;3007;50.770;0.250;2023-09-12T02:07:33;31.92;;;23.88;;
5961;SDS011;3007;50.770;0.250;2023-09-12T02:10:03;24.73;;;21.40;;
5961;SDS011;3007;50.770;0.250;2023-09-12T02:12:31;28.33;;;21.88;;
5961;SDS011;3007;50.770;0.250;2023-09-12T02:14:57;25.83;;;20.30;;
5961;SDS011;3007;50.770;0.250;2023-09-12T02:17:24;25.10;;;20.30;;
5961;SDS011;3007;50.770;0.250;2023-09-12T02:19:53;29.15;;;21.50;;
5961;SDS011;3007;50.770;0.250;2023-09-12T02:22:20;31.38;;;24.17;;
5961;SDS011;3007;50.770;0.250;2023-09-12T02:24:46;32.25;;;24.60;;
5961;SDS011;3007;50.770;0.250;2023-09-12T02:27:13;32.08;;;22.67;;
5961;SDS011;3007;50.770;0.250;2023-09-12T02:29:41;28.50;;;21.33;;
5961;SDS011;3007;50.770;0.250;2023-09-12T02:32:08;32.38;;;24.35;;
5961;SDS011;3007;50.770;0.250;2023-09-12T02:34:37;35.65;;;25.73;;
5961;SDS011;3007;50.770;0.250;2023-09-12T02:37:03;30.23;;;22.52;;
5961;SDS011;3007;50.770;0.250;2023-09-12T02:39:30;35.13;;;23.45;;
5961;SDS011;3007;50.770;0.250;2023-09-12T02:41:57;38.30;;;25.77;;
5961;SDS011;3007;50.770;0.250;2023-09-12T02:44:24;32.10;;;23.98;;
5961;SDS011;3007;50.770;0.250;2023-09-12T02:46:51;31.13;;;23.40;;
5961;SDS011;3007;50.770;0.250;2023-09-12T02:49:18;35.25;;;24.35;;
5961;SDS011;3007;50.770;0.250;2023-09-12T02:51:46;32.83;;;23.92;;
5961;SDS011;3007;50.770;0.250;2023-09-12T02:54:13;31.00;;;23.58;;
5961;SDS011;3007;50.770;0.250;2023-09-12T02:56:40;31.65;;;24.15;;
5961;SDS011;3007;50.770;0.250;2023-09-12T02:59:07;36.22;;;24.85;;
5961;SDS011;3007;50.770;0.250;2023-09-12T03:01:33;29.95;;;23.77;;
5961;SDS011;3007;50.770;0.250;2023-09-12T03:04:00;37.97;;;27.10;;
5961;SDS011;3007;50.770;0.250;2023-09-12T03:06:28;31.42;;;24.27;;
5961;SDS011;3007;50.770;0.250;2023-09-12T03:08:56;30.23;;;23.42;;
5961;SDS011;3007;50.770;0.250;2023-09-12T03:11:25;30.00;;;22.88;;
5961;SDS011;3007;50.770;0.250;2023-09-12T03:13:52;35.58;;;26.08;;
5961;SDS011;3007;50.770;0.250;2023-09-12T03:16:20;34.58;;;23.92;;
5961;SDS011;3007;50.770;0.250;2023-09-12T03:18:48;32.65;;;24.27;;
5961;SDS011;3007;50.770;0.250;2023-09-12T03:21:15;27.52;;;22.90;;
5961;SDS011;3007;50.770;0.250;2023-09-12T03:23:42;30.85;;;23.48;;
5961;SDS011;3007;50.770;0.250;2023-09-12T03:26:10;29.23;;;22.95;;
5961;SDS011;3007;50.770;0.250;2023-09-12T03:28:37;31.08;;;24.45;;
5961;SDS011;3007;50.770;0.250;2023-09-12T03:31:07;30.95;;;23.98;;
5961;SDS011;3007;50.770;0.250;2023-09-12T03:33:36;30.45;;;24.70;;
5961;SDS011;3007;50.770;0.250;2023-09-12T03:36:03;25.60;;;22.02;;
5961;SDS011;3007;50.770;0.250;2023-09-12T03:38:31;30.05;;;24.48;;
5961;SDS011;3007;50.770;0.250;2023-09-12T03:40:58;24.67;;;21.90;;
5961;SDS011;3007;50.770;0.250;2023-09-12T03:43:27;27.17;;;23.60;;
5961;SDS011;3007;50.770;0.250;2023-09-12T03:45:54;28.58;;;22.42;;
5961;SDS011;3007;50.770;0.250;2023-09-12T03:48:20;29.95;;;24.27;;
5961;SDS011;3007;50.770;0.250;2023-09-12T03:50:47;27.92;;;22.92;;
5961;SDS011;3007;50.770;0.250;2023-09-12T03:53:14;26.98;;;21.58;;
5961;SDS011;3007;50.770;0.250;2023-09-12T03:55:41;22.75;;;19.52;;
5961;SDS011;3007;50.770;0.250;2023-09-12T03:58:09;29.42;;;22.52;;
5961;SDS011;3007;50.770;0.250;2023-09-12T04:00:37;26.50;;;21.83;;
5961;SDS011;3007;50.770;0.250;2023-09-12T04:03:04;23.02;;;19.73;;
5961;SDS011;3007;50.770;0.250;2023-09-12T04:05:31;22.13;;;19.10;;
5961;SDS011;3007;50.770;0.250;2023-09-12T04:07:57;22.70;;;19.77;;
5961;SDS011;3007;50.770;0.250;2023-09-12T04:10:24;24.15;;;19.95;;
5961;SDS011;3007;50.770;0.250;2023-09-12T04:12:51;25.92;;;23.15;;
5961;SDS011;3007;50.770;0.250;2023-09-12T04:15:18;28.02;;;23.35;;
5961;SDS011;3007;50.770;0.250;2023-09-12T04:17:46;23.60;;;20.85;;
5961;SDS011;3007;50.770;0.250;2023-09-12T04:20:13;22.10;;;19.58;;
5961;SDS011;3007;50.770;0.250;2023-09-12T04:22:41;21.45;;;19.20;;
5961;SDS011;3007;50.770;0.250;2023-09-12T04:25:08;23.35;;;20.02;;
5961;SDS011;3007;50.770;0.250;2023-09-12T04:27:36;26.10;;;21.27;;
5961;SDS011;3007;50.770;0.250;2023-09-12T04:30:03;24.90;;;20.83;;
5961;SDS011;3007;50.770;0.250;2023-09-12T04:32:30;22.02;;;19.75;;
5961;SDS011;3007;50.770;0.250;2023-09-12T04:34:59;24.08;;;21.52;;
5961;SDS011;3007;50.770;0.250;2023-09-12T04:37:25;24.48;;;19.17;;
5961;SDS011;3007;50.770;0.250;2023-09-12T04:39:52;27.08;;;22.52;;
5961;SDS011;3007;50.770;0.250;2023-09-12T04:42:19;25.30;;;21.63;;
5961;SDS011;3007;50.770;0.250;2023-09-12T04:44:46;27.98;;;21.70;;
5961;SDS011;3007;50.770;0.250;2023-09-12T04:47:13;26.60;;;22.55;;
5961;SDS011;3007;50.770;0.250;2023-09-12T04:49:41;22.85;;;20.40;;
5961;SDS011;3007;50.770;0.250;2023-09-12T04:52:10;21.55;;;18.85;;
5961;SDS011;3007;50.770;0.250;2023-09-12T04:54:37;26.83;;;21.08;;
5961;SDS011;3007;50.770;0.250;2023-09-12T04:57:04;29.33;;;22.60;;
5961;SDS011;3007;50.770;0.250;2023-09-12T04:59:31;29.90;;;24.75;;
5961;SDS011;3007;50.770;0.250;2023-09-12T05:01:58;28.45;;;22.98;;
5961;SDS011;3007;50.770;0.250;2023-09-12T05:04:25;24.73;;;20.73;;
5961;SDS011;3007;50.770;0.250;2023-09-12T05:06:52;25.98;;;20.60;;
5961;SDS011;3007;50.770;0.250;2023-09-12T05:09:20;23.30;;;18.52;;
5961;SDS011;3007;50.770;0.250;2023-09-12T05:11:47;25.02;;;18.13;;
5961;SDS011;3007;50.770;0.250;2023-09-12T05:14:15;26.80;;;20.08;;
5961;SDS011;3007;50.770;0.250;2023-09-12T05:16:41;27.25;;;21.17;;
5961;SDS011;3007;50.770;0.250;2023-09-12T05:19:08;28.90;;;22.50;;
5961;SDS011;3007;50.770;0.250;2023-09-12T05:21:35;27.05;;;20.42;;
5961;SDS011;3007;50.770;0.250;2023-09-12T05:24:02;28.60;;;21.17;;
5961;SDS011;3007;50.770;0.250;2023-09-12T05:26:30;32.17;;;24.23;;
5961;SDS011;3007;50.770;0.250;2023-09-12T05:28:57;35.20;;;24.80;;
5961;SDS011;3007;50.770;0.250;2023-09-12T05:31:24;34.65;;;23.90;;
5961;SDS011;3007;50.770;0.250;2023-09-12T05:33:50;27.48;;;20.33;;
5961;SDS011;3007;50.770;0.250;2023-09-12T05:36:17;32.90;;;20.88;;
5961;SDS011;3007;50.770;0.250;2023-09-12T05:38:44;31.67;;;22.38;;
5961;SDS011;3007;50.770;0.250;2023-09-12T05:41:11;34.83;;;23.88;;
5961;SDS011;3007;50.770;0.250;2023-09-12T05:43:39;27.95;;;21.67;;
5961;SDS011;3007;50.770;0.250;2023-09-12T05:46:06;26.30;;;20.55;;
5961;SDS011;3007;50.770;0.250;2023-09-12T05:48:33;38.03;;;23.30;;
5961;SDS011;3007;50.770;0.250;2023-09-12T05:51:00;38.95;;;24.90;;
5961;SDS011;3007;50.770;0.250;2023-09-12T05:53:27;29.92;;;22.88;;
5961;SDS011;3007;50.770;0.250;2023-09-12T05:55:54;28.83;;;20.13;;
5961;SDS011;3007;50.770;0.250;2023-09-12T05:58:21;28.38;;;21.17;;
5961;SDS011;3007;50.770;0.250;2023-09-12T06:00:49;24.48;;;19.45;;
5961;SDS011;3007;50.770;0.250;2023-09-12T06:03:16;29.92;;;23.98;;
5961;SDS011;3007;50.770;0.250;2023-09-12T06:05:43;33.25;;;23.10;;
5961;SDS011;3007;50.770;0.250;2023-09-12T06:08:10;27.52;;;20.85;;
5961;SDS011;3007;50.770;0.250;2023-09-12T06:10:37;31.30;;;21.23;;
5961;SDS011;3007;50.770;0.250;2023-09-12T06:13:04;23.70;;;19.40;;
5961;SDS011;3007;50.770;0.250;2023-09-12T06:15:31;32.17;;;21.67;;
5961;SDS011;3007;50.770;0.250;2023-09-12T06:17:59;28.65;;;20.33;;
5961;SDS011;3007;50.770;0.250;2023-09-12T06:20:25;26.13;;;19.90;;
5961;SDS011;3007;50.770;0.250;2023-09-12T06:22:52;30.08;;;21.92;;
5961;SDS011;3007;50.770;0.250;2023-09-12T06:25:19;26.08;;;19.73;;
5961;SDS011;3007;50.770;0.250;2023-09-12T06:27:45;25.02;;;18.10;;
5961;SDS011;3007;50.770;0.250;2023-09-12T06:30:12;26.10;;;17.67;;
5961;SDS011;3007;50.770;0.250;2023-09-12T06:32:39;28.20;;;23.00;;
5961;SDS011;3007;50.770;0.250;2023-09-12T06:35:10;25.38;;;20.13;;
5961;SDS011;3007;50.770;0.250;2023-09-12T06:37:37;28.52;;;20.98;;
5961;SDS011;3007;50.770;0.250;2023-09-12T06:40:04;28.75;;;21.05;;
5961;SDS011;3007;50.770;0.250;2023-09-12T06:42:32;27.52;;;19.95;;
5961;SDS011;3007;50.770;0.250;2023-09-12T06:44:59;33.92;;;22.88;;
5961;SDS011;3007;50.770;0.250;2023-09-12T06:47:26;28.48;;;23.45;;
5961;SDS011;3007;50.770;0.250;2023-09-12T06:49:53;30.52;;;22.00;;
5961;SDS011;3007;50.770;0.250;2023-09-12T06:52:21;28.08;;;21.67;;
5961;SDS011;3007;50.770;0.250;2023-09-12T06:54:47;27.35;;;19.70;;
5961;SDS011;3007;50.770;0.250;2023-09-12T06:57:14;25.80;;;20.08;;
5961;SDS011;3007;50.770;0.250;2023-09-12T06:59:41;27.60;;;21.33;;
5961;SDS011;3007;50.770;0.250;2023-09-12T07:02:08;24.30;;;17.83;;
5961;SDS011;3007;50.770;0.250;2023-09-12T07:04:37;25.42;;;18.05;;
5961;SDS011;3007;50.770;0.250;2023-09-12T07:07:04;24.50;;;18.23;;
5961;SDS011;3007;50.770;0.250;2023-09-12T07:09:32;28.02;;;18.52;;
5961;SDS011;3007;50.770;0.250;2023-09-12T07:11:59;24.88;;;17.35;;
5961;SDS011;3007;50.770;0.250;2023-09-12T07:14:26;29.02;;;20.08;;
5961;SDS011;3007;50.770;0.250;2023-09-12T07:16:54;26.77;;;18.88;;
5961;SDS011;3007;50.770;0.250;2023-09-12T07:19:21;24.90;;;18.50;;
5961;SDS011;3007;50.770;0.250;2023-09-12T07:21:49;24.13;;;17.80;;
5961;SDS011;3007;50.770;0.250;2023-09-12T07:24:16;23.52;;;18.30;;
5961;SDS011;3007;50.770;0.250;2023-09-12T07:26:44;25.83;;;19.75;;
5961;SDS011;3007;50.770;0.250;2023-09-12T07:29:12;22.67;;;16.90;;
5961;SDS011;3007;50.770;0.250;2023-09-12T07:31:38;23.63;;;18.98;;
5961;SDS011;3007;50.770;0.250;2023-09-12T07:34:05;22.23;;;16.73;;
5961;SDS011;3007;50.770;0.250;2023-09-12T07:36:33;22.10;;;17.75;;
5961;SDS011;3007;50.770;0.250;2023-09-12T07:39:00;20.48;;;15.43;;
5961;SDS011;3007;50.770;0.250;2023-09-12T07:41:27;21.08;;;16.88;;
5961;SDS011;3007;50.770;0.250;2023-09-12T07:43:55;19.90;;;15.50;;
5961;SDS011;3007;50.770;0.250;2023-09-12T07:46:22;19.20;;;16.58;;
5961;SDS011;3007;50.770;0.250;2023-09-12T07:48:49;18.27;;;13.80;;
5961;SDS011;3007;50.770;0.250;2023-09-12T07:51:17;14.77;;;13.20;;
5961;SDS011;3007;50.770;0.250;2023-09-12T07:53:44;15.98;;;13.55;;
5961;SDS011;3007;50.770;0.250;2023-09-12T07:56:11;17.42;;;12.98;;
5961;SDS011;3007;50.770;0.250;2023-09-12T07:58:38;15.85;;;12.07;;
5961;SDS011;3007;50.770;0.250;2023-09-12T08:01:06;14.82;;;11.18;;
5961;SDS011;3007;50.770;0.250;2023-09-12T08:03:35;13.73;;;11.38;;
5961;SDS011;3007;50.770;0.250;2023-09-12T08:06:03;13.13;;;10.82;;
5961;SDS011;3007;50.770;0.250;2023-09-12T08:08:30;10.35;;;9.27;;
5961;SDS011;3007;50.770;0.250;2023-09-12T08:10:58;10.02;;;8.65;;
5961;SDS011;3007;50.770;0.250;2023-09-12T08:13:25;9.73;;;8.15;;
5961;SDS011;3007;50.770;0.250;2023-09-12T08:15:53;11.50;;;9.38;;
5961;SDS011;3007;50.770;0.250;2023-09-12T08:18:25;10.40;;;9.30;;
5961;SDS011;3007;50.770;0.250;2023-09-12T08:20:53;10.25;;;8.40;;
5961;SDS011;3007;50.770;0.250;2023-09-12T08:23:20;7.95;;;7.20;;
5961;SDS011;3007;50.770;0.250;2023-09-12T08:25:46;8.88;;;7.60;;
5961;SDS011;3007;50.770;0.250;2023-09-12T08:28:13;7.50;;;6.47;;
5961;SDS011;3007;50.770;0.250;2023-09-12T08:30:43;8.98;;;7.85;;
5961;SDS011;3007;50.770;0.250;2023-09-12T08:33:10;7.88;;;7.15;;
5961;SDS011;3007;50.770;0.250;2023-09-12T08:35:38;7.22;;;6.53;;
5961;SDS011;3007;50.770;0.250;2023-09-12T08:38:05;6.88;;;5.88;;
5961;SDS011;3007;50.770;0.250;2023-09-12T08:40:33;7.35;;;6.65;;
5961;SDS011;3007;50.770;0.250;2023-09-12T08:43:01;8.43;;;7.68;;
5961;SDS011;3007;50.770;0.250;2023-09-12T08:45:29;7.05;;;5.50;;
5961;SDS011;3007;50.770;0.250;2023-09-12T08:47:57;9.02;;;6.70;;
5961;SDS011;3007;50.770;0.250;2023-09-12T08:50:26;6.82;;;6.15;;
5961;SDS011;3007;50.770;0.250;2023-09-12T08:52:57;7.80;;;7.00;;
5961;SDS011;3007;50.770;0.250;2023-09-12T08:55:24;7.55;;;6.90;;
5961;SDS011;3007;50.770;0.250;2023-09-12T08:57:51;7.60;;;6.47;;
5961;SDS011;3007;50.770;0.250;2023-09-12T09:00:20;9.75;;;7.05;;
5961;SDS011;3007;50.770;0.250;2023-09-12T09:02:50;8.48;;;6.40;;
5961;SDS011;3007;50.770;0.250;2023-09-12T09:05:17;7.05;;;6.15;;
5961;SDS011;3007;50.770;0.250;2023-09-12T09:07:48;8.68;;;6.85;;
5961;SDS011;3007;50.770;0.250;2023-09-12T09:10:17;8.38;;;6.50;;
5961;SDS011;3007;50.770;0.250;2023-09-12T09:12:45;6.72;;;6.10;;
5961;SDS011;3007;50.770;0.250;2023-09-12T09:15:25;6.22;;;5.40;;
5961;SDS011;3007;50.770;0.250;2023-09-12T09:17:53;8.13;;;5.88;;
5961;SDS011;3007;50.770;0.250;2023-09-12T09:20:22;6.63;;;5.82;;
5961;SDS011;3007;50.770;0.250;2023-09-12T09:23:01;6.20;;;5.60;;
5961;SDS011;3007;50.770;0.250;2023-09-12T09:25:32;11.38;;;6.25;;
5961;SDS011;3007;50.770;0.250;2023-09-12T09:28:02;5.72;;;5.13;;
5961;SDS011;3007;50.770;0.250;2023-09-12T09:30:40;7.82;;;5.63;;
5961;SDS011;3007;50.770;0.250;2023-09-12T09:33:07;7.20;;;6.35;;
5961;SDS011;3007;50.770;0.250;2023-09-12T09:35:35;7.22;;;6.53;;
5961;SDS011;3007;50.770;0.250;2023-09-12T09:38:02;7.72;;;6.18;;
5961;SDS011;3007;50.770;0.250;2023-09-12T09:40:33;7.32;;;5.53;;
5961;SDS011;3007;50.770;0.250;2023-09-12T09:43:01;6.47;;;5.13;;
5961;SDS011;3007;50.770;0.250;2023-09-12T09:45:29;5.43;;;4.55;;
5961;SDS011;3007;50.770;0.250;2023-09-12T09:47:57;7.35;;;5.03;;
5961;SDS011;3007;50.770;0.250;2023-09-12T09:50:25;5.18;;;4.43;;
5961;SDS011;3007;50.770;0.250;2023-09-12T09:52:54;5.97;;;5.10;;
5961;SDS011;3007;50.770;0.250;2023-09-12T09:55:22;4.63;;;4.13;;
5961;SDS011;3007;50.770;0.250;2023-09-12T09:57:51;7.22;;;4.30;;
5961;SDS011;3007;50.770;0.250;2023-09-12T10:00:20;7.72;;;4.65;;
5961;SDS011;3007;50.770;0.250;2023-09-12T10:02:48;4.68;;;4.28;;
5961;SDS011;3007;50.770;0.250;2023-09-12T10:05:16;5.03;;;4.57;;
5961;SDS011;3007;50.770;0.250;2023-09-12T10:07:44;4.90;;;4.40;;
5961;SDS011;3007;50.770;0.250;2023-09-12T10:10:14;4.78;;;4.10;;
5961;SDS011;3007;50.770;0.250;2023-09-12T10:12:45;8.18;;;4.18;;
5961;SDS011;3007;50.770;0.250;2023-09-12T10:15:17;4.80;;;4.13;;
5961;SDS011;3007;50.770;0.250;2023-09-12T10:17:49;5.07;;;3.60;;
5961;SDS011;3007;50.770;0.250;2023-09-12T10:20:21;4.97;;;3.63;;
5961;SDS011;3007;50.770;0.250;2023-09-12T10:22:55;3.80;;;3.50;;
5961;SDS011;3007;50.770;0.250;2023-09-12T10:25:32;6.47;;;3.78;;
5961;SDS011;3007;50.770;0.250;2023-09-12T10:28:01;3.22;;;2.92;;
5961;SDS011;3007;50.770;0.250;2023-09-12T10:30:31;4.32;;;3.58;;
5961;SDS011;3007;50.770;0.250;2023-09-12T10:33:00;5.45;;;3.60;;
5961;SDS011;3007;50.770;0.250;2023-09-12T10:35:29;4.15;;;3.42;;
5961;SDS011;3007;50.770;0.250;2023-09-12T10:37:58;5.78;;;3.08;;
5961;SDS011;3007;50.770;0.250;2023-09-12T10:40:29;4.15;;;3.17;;
5961;SDS011;3007;50.770;0.250;2023-09-12T10:42:57;3.92;;;2.67;;
5961;SDS011;3007;50.770;0.250;2023-09-12T10:45:26;3.10;;;2.53;;
5961;SDS011;3007;50.770;0.250;2023-09-12T10:47:55;3.70;;;2.42;;
5961;SDS011;3007;50.770;0.250;2023-09-12T10:50:22;3.63;;;2.70;;
5961;SDS011;3007;50.770;0.250;2023-09-12T10:52:49;3.20;;;2.65;;
5961;SDS011;3007;50.770;0.250;2023-09-12T10:55:16;3.55;;;2.88;;
5961;SDS011;3007;50.770;0.250;2023-09-12T10:58:02;4.55;;;2.67;;
5961;SDS011;3007;50.770;0.250;2023-09-12T11:00:30;4.88;;;2.78;;
5961;SDS011;3007;50.770;0.250;2023-09-12T11:02:59;5.47;;;3.22;;
5961;SDS011;3007;50.770;0.250;2023-09-12T11:05:58;4.22;;;3.60;;
5961;SDS011;3007;50.770;0.250;2023-09-12T11:08:26;4.95;;;3.97;;
5961;SDS011;3007;50.770;0.250;2023-09-12T11:13:43;4.40;;;3.97;;
5961;SDS011;3007;50.770;0.250;2023-09-12T11:16:12;3.50;;;3.20;;
5961;SDS011;3007;50.770;0.250;2023-09-12T11:21:42;4.80;;;3.00;;
5961;SDS011;3007;50.770;0.250;2023-09-12T11:24:09;4.10;;;3.38;;
5961;SDS011;3007;50.770;0.250;2023-09-12T11:26:51;5.20;;;2.92;;
5961;SDS011;3007;50.770;0.250;2023-09-12T11:29:20;5.97;;;3.58;;
5961;SDS011;3007;50.770;0.250;2023-09-12T11:31:51;6.15;;;3.50;;
5961;SDS011;3007;50.770;0.250;2023-09-12T11:34:22;4.72;;;3.60;;
5961;SDS011;3007;50.770;0.250;2023-09-12T11:36:54;4.53;;;4.13;;
5961;SDS011;3007;50.770;0.250;2023-09-12T11:39:22;5.40;;;3.95;;
5961;SDS011;3007;50.770;0.250;2023-09-12T11:41:50;4.07;;;3.45;;
5961;SDS011;3007;50.770;0.250;2023-09-12T11:44:18;3.47;;;2.63;;
5961;SDS011;3007;50.770;0.250;2023-09-12T11:46:47;2.85;;;2.35;;
5961;SDS011;3007;50.770;0.250;2023-09-12T11:49:17;4.10;;;3.20;;
5961;SDS011;3007;50.770;0.250;2023-09-12T11:51:48;4.30;;;3.50;;
5961;SDS011;3007;50.770;0.250;2023-09-12T11:54:18;4.30;;;3.90;;
5961;SDS011;3007;50.770;0.250;2023-09-12T11:56:46;5.22;;;4.15;;
5961;SDS011;3007;50.770;0.250;2023-09-12T11:59:14;4.32;;;3.75;;
5961;SDS011;3007;50.770;0.250;2023-09-12T12:01:46;4.97;;;3.08;;
5961;SDS011;3007;50.770;0.250;2023-09-12T12:04:13;4.80;;;3.67;;
5961;SDS011;3007;50.770;0.250;2023-09-12T12:06:40;5.35;;;4.38;;
5961;SDS011;3007;50.770;0.250;2023-09-12T12:09:07;4.38;;;3.50;;
5961;SDS011;3007;50.770;0.250;2023-09-12T12:11:36;4.28;;;3.50;;
5961;SDS011;3007;50.770;0.250;2023-09-12T12:14:11;7.20;;;4.22;;
5961;SDS011;3007;50.770;0.250;2023-09-12T12:16:41;4.88;;;4.38;;
5961;SDS011;3007;50.770;0.250;2023-09-12T12:19:09;6.28;;;5.68;;
5961;SDS011;3007;50.770;0.250;2023-09-12T12:21:36;5.57;;;4.65;;
5961;SDS011;3007;50.770;0.250;2023-09-12T12:24:04;5.00;;;4.53;;
5961;SDS011;3007;50.770;0.250;2023-09-12T12:26:33;6.63;;;5.53;;
5961;SDS011;3007;50.770;0.250;2023-09-12T12:29:02;6.72;;;4.88;;
5961;SDS011;3007;50.770;0.250;2023-09-12T12:31:30;7.32;;;5.10;;
5961;SDS011;3007;50.770;0.250;2023-09-12T12:33:57;4.38;;;3.80;;
5961;SDS011;3007;50.770;0.250;2023-09-12T12:36:25;6.35;;;3.95;;
5961;SDS011;3007;50.770;0.250;2023-09-12T12:38:54;3.95;;;2.88;;
5961;SDS011;3007;50.770;0.250;2023-09-12T12:41:24;4.40;;;3.85;;
5961;SDS011;3007;50.770;0.250;2023-09-12T12:43:52;5.65;;;4.03;;
5961;SDS011;3007;50.770;0.250;2023-09-12T12:46:21;3.30;;;2.90;;
5961;SDS011;3007;50.770;0.250;2023-09-12T12:48:50;4.18;;;3.00;;
5961;SDS011;3007;50.770;0.250;2023-09-12T12:51:17;4.32;;;2.83;;
5961;SDS011;3007;50.770;0.250;2023-09-12T12:53:49;3.35;;;2.42;;
5961;SDS011;3007;50.770;0.250;2023-09-12T12:56:17;3.83;;;2.30;;
5961;SDS011;3007;50.770;0.250;2023-09-12T12:58:48;3.67;;;3.10;;
5961;SDS011;3007;50.770;0.250;2023-09-12T13:01:16;3.35;;;2.90;;
5961;SDS011;3007;50.770;0.250;2023-09-12T13:03:44;2.85;;;2.20;;
5961;SDS011;3007;50.770;0.250;2023-09-12T13:06:11;2.55;;;2.35;;
5961;SDS011;3007;50.770;0.250;2023-09-12T13:08:42;2.58;;;2.38;;
5961;SDS011;3007;50.770;0.250;2023-09-12T13:11:11;2.50;;;2.30;;
5961;SDS011;3007;50.770;0.250;2023-09-12T13:13:39;2.95;;;2.38;;
5961;SDS011;3007;50.770;0.250;2023-09-12T13:16:07;3.60;;;2.97;;
5961;SDS011;3007;50.770;0.250;2023-09-12T13:18:36;3.45;;;2.65;;
5961;SDS011;3007;50.770;0.250;2023-09-12T13:21:05;2.95;;;2.67;;
5961;SDS011;3007;50.770;0.250;2023-09-12T13:23:33;3.97;;;2.70;;
5961;SDS011;3007;50.770;0.250;2023-09-12T13:26:01;3.92;;;3.35;;
5961;SDS011;3007;50.770;0.250;2023-09-12T13:28:29;4.25;;;3.13;;
5961;SDS011;3007;50.770;0.250;2023-09-12T13:30:56;4.07;;;3.72;;
5961;SDS011;3007;50.770;0.250;2023-09-12T13:33:23;3.47;;;3.17;;
5961;SDS011;3007;50.770;0.250;2023-09-12T13:35:50;4.70;;;3.67;;
5961;SDS011;3007;50.770;0.250;2023-09-12T13:38:19;3.63;;;2.97;;
5961;SDS011;3007;50.770;0.250;2023-09-12T13:40:47;3.53;;;3.08;;
5961;SDS011;3007;50.770;0.250;2023-09-12T13:43:14;4.03;;;3.28;;
5961;SDS011;3007;50.770;0.250;2023-09-12T13:45:41;3.92;;;3.53;;
5961;SDS011;3007;50.770;0.250;2023-09-12T13:48:08;5.45;;;3.20;;
5961;SDS011;3007;50.770;0.250;2023-09-12T13:50:37;3.95;;;2.80;;
5961;SDS011;3007;50.770;0.250;2023-09-12T13:53:04;3.78;;;2.90;;
5961;SDS011;3007;50.770;0.250;2023-09-12T13:55:33;4.90;;;3.40;;
5961;SDS011;3007;50.770;0.250;2023-09-12T13:58:01;3.95;;;2.92;;
5961;SDS011;3007;50.770;0.250;2023-09-12T14:00:28;6.45;;;3.10;;
5961;SDS011;3007;50.770;0.250;2023-09-12T14:02:55;3.90;;;3.55;;
5961;SDS011;3007;50.770;0.250;2023-09-12T14:05:22;4.45;;;3.17;;
5961;SDS011;3007;50.770;0.250;2023-09-12T14:07:49;4.05;;;3.17;;
5961;SDS011;3007;50.770;0.250;2023-09-12T14:10:17;4.18;;;2.85;;
5961;SDS011;3007;50.770;0.250;2023-09-12T14:12:45;3.63;;;3.03;;
5961;SDS011;3007;50.770;0.250;2023-09-12T14:15:12;3.22;;;2.70;;
5961;SDS011;3007;50.770;0.250;2023-09-12T14:17:40;4.53;;;2.45;;
5961;SDS011;3007;50.770;0.250;2023-09-12T14:20:07;3.72;;;2.45;;
5961;SDS011;3007;50.770;0.250;2023-09-12T14:22:35;5.40;;;3.08;;
5961;SDS011;3007;50.770;0.250;2023-09-12T14:25:02;2.78;;;2.58;;
5961;SDS011;3007;50.770;0.250;2023-09-12T14:27:30;4.10;;;3.13;;
5961;SDS011;3007;50.770;0.250;2023-09-12T14:30:01;5.65;;;2.88;;
5961;SDS011;3007;50.770;0.250;2023-09-12T14:32:29;3.85;;;2.90;;
5961;SDS011;3007;50.770;0.250;2023-09-12T14:34:56;4.78;;;2.80;;
5961;SDS011;3007;50.770;0.250;2023-09-12T14:37:24;3.38;;;2.80;;
5961;SDS011;3007;50.770;0.250;2023-09-12T14:39:52;4.05;;;2.90;;
5961;SDS011;3007;50.770;0.250;2023-09-12T14:42:20;5.25;;;3.33;;
5961;SDS011;3007;50.770;0.250;2023-09-12T14:44:47;3.40;;;3.10;;
5961;SDS011;3007;50.770;0.250;2023-09-12T14:47:15;5.18;;;3.30;;
5961;SDS011;3007;50.770;0.250;2023-09-12T14:49:42;4.82;;;3.55;;
5961;SDS011;3007;50.770;0.250;2023-09-12T14:52:09;4.07;;;3.45;;
5961;SDS011;3007;50.770;0.250;2023-09-12T14:54:35;3.58;;;3.17;;
5961;SDS011;3007;50.770;0.250;2023-09-12T14:57:02;5.50;;;3.80;;
5961;SDS011;3007;50.770;0.250;2023-09-12T14:59:29;5.28;;;3.65;;
5961;SDS011;3007;50.770;0.250;2023-09-12T15:01:56;6.10;;;3.33;;
5961;SDS011;3007;50.770;0.250;2023-09-12T15:04:24;6.93;;;4.55;;
5961;SDS011;3007;50.770;0.250;2023-09-12T15:06:51;6.32;;;4.05;;
5961;SDS011;3007;50.770;0.250;2023-09-12T15:09:18;7.03;;;4.55;;
5961;SDS011;3007;50.770;0.250;2023-09-12T15:11:45;4.13;;;3.45;;
5961;SDS011;3007;50.770;0.250;2023-09-12T15:14:12;5.20;;;4.00;;